Time;durP1;ratioP1;P1;durP2;ratioP2;P2;SDS_P1;SDS_P2;PMS_P1;PMS_P2;Temp;Humidity;BMP_temperature;BMP_pressure;BME280_temperature;BME280_humidity;BME280_pressure;Samples;Min_cycle;Max_cycle;Signal;HPM_P1;HPM_P2
2023/12/21 00:00:23;;;;;;;0.75;0.38;;;;;;;39.80;25.01;99047.19;7392660;19;20340;-59
2023/12/21 00:02:49;;;;;;;0.10;0.10;;;;;;;39.79;24.97;99045.69;7391971;19;20109;-59
2023/12/21 00:05:15;;;;;;;0.40;0.20;;;;;;;39.69;25.42;99036.78;7392209;19;20007;-59
2023/12/21 00:07:41;;;;;;;0.10;0.00;;;;;;;39.86;25.10;99048.03;7394732;19;20036;-60
2023/12/21 00:10:08;;;;;;;7.15;0.52;;;;;;;39.95;25.04;99035.06;7392294;19;20070;-60
2023/12/21 00:12:34;;;;;;;3.40;0.40;;;;;;;39.77;24.69;99020.16;7392098;19;20010;-60
2023/12/21 00:15:00;;;;;;;9.50;0.63;;;;;;;39.44;25.00;99018.06;7392630;19;20010;-60
2023/12/21 00:17:26;;;;;;;0.63;0.55;;;;;;;39.59;24.90;99016.22;7392872;19;20088;-60
2023/12/21 00:19:52;;;;;;;1.83;0.75;;;;;;;39.71;25.03;99011.31;7395555;19;20015;-60
2023/12/21 00:22:18;;;;;;;3.92;0.63;;;;;;;39.88;24.76;99007.22;7391900;19;20007;-61
2023/12/21 00:24:44;;;;;;;0.45;0.45;;;;;;;40.33;24.64;99019.63;7393331;19;20011;-61
2023/12/21 00:27:10;;;;;;;2.85;0.20;;;;;;;40.47;24.38;99016.94;7397492;19;20043;-61
2023/12/21 00:29:36;;;;;;;18.45;0.90;;;;;;;40.54;24.19;99003.91;7398275;19;20353;-61
2023/12/21 00:32:03;;;;;;;5.47;0.30;;;;;;;40.17;24.56;98990.94;7401605;19;20362;-61
2023/12/21 00:34:29;;;;;;;3.70;0.30;;;;;;;40.01;24.33;98984.84;7398057;19;20014;-65
2023/12/21 00:36:55;;;;;;;6.25;1.00;;;;;;;39.97;24.20;98991.34;7398820;19;20010;-60
2023/12/21 00:39:21;;;;;;;1.75;0.22;;;;;;;40.47;23.92;98976.06;7396493;19;20415;-60
2023/12/21 00:41:47;;;;;;;2.38;0.28;;;;;;;40.50;24.38;98980.50;7397831;19;20017;-60
2023/12/21 00:44:13;;;;;;;11.45;1.05;;;;;;;40.22;23.94;98972.03;7399675;19;20014;-60
2023/12/21 00:46:40;;;;;;;1.10;0.40;;;;;;;40.44;23.94;98960.69;7398045;19;20043;-60
2023/12/21 00:49:06;;;;;;;4.60;0.60;;;;;;;40.33;24.15;98967.09;7398236;19;20073;-60
2023/12/21 00:51:32;;;;;;;0.45;0.45;;;;;;;40.44;24.12;98965.78;7398006;19;20015;-60
2023/12/21 00:53:59;;;;;;;0.80;0.43;;;;;;;39.38;24.44;98957.50;7400791;19;20018;-59
2023/12/21 00:56:25;;;;;;;0.35;0.28;;;;;;;40.28;23.90;98942.22;7398686;19;20018;-60
2023/12/21 00:58:51;;;;;;;0.80;0.20;;;;;;;40.43;23.70;98924.22;7397770;19;20006;-59
2023/12/21 01:01:17;;;;;;;0.00;0.00;;;;;;;40.22;23.55;98931.19;7396720;19;20333;-60
2023/12/21 01:03:43;;;;;;;1.33;0.65;;;;;;;40.16;23.44;98936.19;7396933;19;20014;-59
2023/12/21 01:06:10;;;;;;;0.52;0.28;;;;;;;40.41;23.72;98918.34;7397447;19;20015;-59
2023/12/21 01:08:36;;;;;;;0.30;0.10;;;;;;;40.62;23.85;98922.25;7397455;19;20015;-59
2023/12/21 01:11:02;;;;;;;0.10;0.10;;;;;;;40.69;23.41;98904.09;7397361;19;20014;-59
2023/12/21 01:13:28;;;;;;;0.00;0.00;;;;;;;40.72;23.28;98904.81;7398681;19;20014;-59
2023/12/21 01:15:54;;;;;;;0.45;0.10;;;;;;;40.48;23.54;98887.03;7395580;19;20362;-60
2023/12/21 01:18:20;;;;;;;0.82;0.50;;;;;;;40.56;23.62;98901.72;7397847;19;20097;-60
2023/12/21 01:20:46;;;;;;;0.30;0.13;;;;;;;40.51;23.59;98900.94;7396631;19;20403;-60
2023/12/21 01:23:12;;;;;;;0.90;0.28;;;;;;;40.60;23.57;98890.84;7397346;19;20007;-60
2023/12/21 01:25:38;;;;;;;1.75;0.10;;;;;;;40.18;23.99;98883.72;7396159;19;20021;-60
2023/12/21 01:28:05;;;;;;;1.42;0.30;;;;;;;40.27;23.90;98882.34;7396079;19;20475;-59
2023/12/21 01:30:31;;;;;;;0.10;0.10;;;;;;;40.32;23.67;98889.72;7397103;19;20014;-60
2023/12/21 01:32:57;;;;;;;0.38;0.38;;;;;;;40.11;23.95;98889.44;7397600;19;20014;-59
2023/12/21 01:35:23;;;;;;;4.28;0.65;;;;;;;40.39;23.90;98894.94;7396258;19;20014;-59
2023/12/21 01:37:49;;;;;;;1.38;0.30;;;;;;;40.60;23.48;98895.94;7395440;19;20418;-60
2023/12/21 01:40:15;;;;;;;0.40;0.40;;;;;;;40.02;24.29;98887.16;7395574;19;20516;-59
2023/12/21 01:42:41;;;;;;;1.10;0.70;;;;;;;39.97;24.32;98889.25;7395175;19;20023;-59
2023/12/21 01:45:08;;;;;;;0.10;0.00;;;;;;;40.07;24.03;98857.31;7400405;19;20011;-59
2023/12/21 01:47:35;;;;;;;0.00;0.00;;;;;;;40.08;24.48;98837.63;7395981;19;20053;-59
2023/12/21 01:50:02;;;;;;;0.13;0.13;;;;;;;40.15;23.80;98830.44;7396678;19;20070;-59
2023/12/21 01:52:28;;;;;;;0.52;0.30;;;;;;;39.82;24.07;98823.41;7395339;19;20028;-59
2023/12/21 01:54:55;;;;;;;0.20;0.20;;;;;;;39.92;24.59;98817.69;7400603;19;20018;-59
2023/12/21 01:57:22;;;;;;;0.10;0.10;;;;;;;40.04;24.24;98817.91;7395259;19;20011;-60
2023/12/21 01:59:48;;;;;;;1.13;0.50;;;;;;;39.32;24.69;98808.06;7395250;19;20018;-60
2023/12/21 02:02:14;;;;;;;0.10;0.10;;;;;;;39.12;24.74;98820.13;7395410;19;20007;-60
2023/12/21 02:04:41;;;;;;;0.52;0.32;;;;;;;38.99;25.28;98806.75;7397816;19;20019;-60
2023/12/21 02:07:07;;;;;;;0.75;0.10;;;;;;;25.22;39.31;98830.78;7396213;19;20021;-60
2023/12/21 02:09:33;;;;;;;0.17;0.17;;;;;;;17.81;100.00;98867.38;7395743;19;20018;-59
2023/12/21 02:11:59;;;;;;;0.10;0.10;;;;;;;16.25;100.00;98852.25;7395636;19;20065;-59
2023/12/21 02:14:25;;;;;;;0.35;0.08;;;;;;;15.66;100.00;98870.34;7398238;19;20022;-59
2023/12/21 02:16:57;;;;;;;0.10;0.10;;;;;;;12.91;100.00;98867.00;7395944;19;20018;-59
2023/12/21 02:19:23;;;;;;;0.47;0.40;;;;;;;15.55;100.00;98844.53;7399649;19;20366;-59
2023/12/21 02:21:51;;;;;;;0.10;0.08;;;;;;;15.33;100.00;98839.22;7395684;19;20043;-60
2023/12/21 02:24:18;;;;;;;0.75;0.38;;;;;;;27.68;85.19;98814.06;7396930;19;20006;-60
2023/12/21 02:26:44;;;;;;;0.57;0.57;;;;;;;29.07;72.65;98798.81;7394476;19;20066;-60
2023/12/21 02:29:10;;;;;;;1.70;0.73;;;;;;;34.85;42.44;98776.44;7394675;19;20047;-60
2023/12/21 02:31:37;;;;;;;0.20;0.10;;;;;;;35.49;37.27;98769.88;7393828;19;20347;-60
2023/12/21 02:34:06;;;;;;;4.35;0.68;;;;;;;36.01;36.18;98764.19;7396815;19;20018;-60
2023/12/21 02:36:35;;;;;;;0.20;0.20;;;;;;;21.51;90.83;98785.25;7394290;19;20015;-60
2023/12/21 02:39:01;;;;;;;0.15;0.05;;;;;;;16.67;100.00;98794.97;7394302;19;20341;-60
2023/12/21 02:41:27;;;;;;;4.35;1.10;;;;;;;17.04;100.00;98773.47;7393299;19;20017;-60
2023/12/21 02:43:53;;;;;;;0.50;0.50;;;;;;;15.94;100.00;98811.69;7394599;19;20014;-59
2023/12/21 02:46:21;;;;;;;0.43;0.43;;;;;;;15.39;100.00;98778.94;7392684;19;20022;-59
2023/12/21 02:48:47;;;;;;;4.13;0.55;;;;;;;15.25;100.00;98773.78;7392838;19;20070;-60
2023/12/21 02:51:13;;;;;;;3.92;0.35;;;;;;;15.21;100.00;98754.47;7394095;19;20501;-60
2023/12/21 02:53:40;;;;;;;0.57;0.28;;;;;;;15.23;100.00;98753.94;7395235;19;20007;-60
2023/12/21 02:56:06;;;;;;;0.10;0.10;;;;;;;15.28;100.00;98762.28;7392273;19;20011;-60
2023/12/21 02:58:32;;;;;;;0.30;0.30;;;;;;;15.37;100.00;98758.31;7393543;19;20010;-60
2023/12/21 03:00:58;;;;;;;0.93;0.85;;;;;;;15.31;100.00;98755.59;7393188;19;20010;-60
2023/12/21 03:03:24;;;;;;;1.27;0.10;;;;;;;15.36;100.00;98737.91;7393928;19;20070;-60
2023/12/21 03:05:50;;;;;;;0.65;0.47;;;;;;;15.25;100.00;98746.50;7394206;19;20011;-60
2023/12/21 03:08:17;;;;;;;8.98;0.20;;;;;;;20.52;100.00;98719.91;7394122;19;20496;-60
2023/12/21 03:10:43;;;;;;;0.17;0.17;;;;;;;32.54;56.62;98685.38;7393425;19;20015;-60
2023/12/21 03:13:09;;;;;;;6.65;0.20;;;;;;;34.79;43.58;98666.28;7393681;19;20384;-60
2023/12/21 03:15:35;;;;;;;6.47;0.63;;;;;;;36.26;39.18;98662.69;7392293;19;20451;-60
2023/12/21 03:18:01;;;;;;;7.22;0.32;;;;;;;36.51;36.97;98646.66;7394584;19;20007;-60
2023/12/21 03:20:27;;;;;;;4.15;0.30;;;;;;;36.60;35.90;98647.59;7392406;19;20347;-60
2023/12/21 03:22:53;;;;;;;3.35;0.10;;;;;;;36.25;35.87;98619.88;7393484;19;20010;-60
2023/12/21 03:25:19;;;;;;;0.00;0.00;;;;;;;35.61;35.68;98607.28;7393009;19;20385;-60
2023/12/21 03:27:47;;;;;;;0.30;0.20;;;;;;;36.06;34.88;98632.44;7392779;19;20092;-60
2023/12/21 03:30:13;;;;;;;1.40;0.98;;;;;;;36.09;34.72;98613.66;7395262;19;20344;-60
2023/12/21 03:32:39;;;;;;;0.00;0.00;;;;;;;35.99;34.26;98622.84;7392242;19;20014;-60
2023/12/21 03:35:07;;;;;;;8.02;0.77;;;;;;;36.18;33.63;98604.50;7396090;19;20015;-60
2023/12/21 03:37:33;;;;;;;0.20;0.20;;;;;;;36.20;33.20;98624.09;7392705;19;20018;-60
2023/12/21 03:39:59;;;;;;;0.10;0.10;;;;;;;34.99;34.19;98615.59;7393302;19;20532;-60
2023/12/21 03:42:25;;;;;;;0.20;0.20;;;;;;;35.14;34.29;98619.66;7392698;19;20018;-60
2023/12/21 03:44:52;;;;;;;0.00;0.00;;;;;;;34.98;34.62;98619.88;7392559;19;20018;-60
2023/12/21 03:47:18;;;;;;;0.10;0.10;;;;;;;34.82;34.15;98592.59;7391301;19;20007;-60
2023/12/21 03:49:44;;;;;;;0.00;0.00;;;;;;;34.97;34.08;98601.03;7392994;19;20092;-60
2023/12/21 03:52:10;;;;;;;1.15;0.22;;;;;;;34.95;34.43;98579.97;7392450;19;20015;-60
2023/12/21 03:54:36;;;;;;;0.10;0.10;;;;;;;34.55;34.29;98567.16;7396146;19;20018;-60
2023/12/21 03:57:02;;;;;;;0.00;0.00;;;;;;;34.86;33.92;98558.00;7391710;19;20022;-60
2023/12/21 03:59:28;;;;;;;0.08;0.08;;;;;;;35.07;33.98;98534.06;7391516;19;20035;-60
2023/12/21 04:01:56;;;;;;;1.20;0.52;;;;;;;35.22;33.77;98526.50;7398485;19;20015;-60
2023/12/21 04:04:23;;;;;;;0.30;0.28;;;;;;;34.92;34.12;98540.81;7397834;19;20018;-60
2023/12/21 04:06:49;;;;;;;4.95;0.25;;;;;;;34.91;33.61;98536.47;7402601;19;20021;-60
2023/12/21 04:09:15;;;;;;;0.10;0.00;;;;;;;35.22;33.65;98538.81;7398967;19;20045;-60
2023/12/21 04:11:41;;;;;;;0.28;0.28;;;;;;;35.20;33.56;98570.63;7399809;19;20504;-60
2023/12/21 04:14:07;;;;;;;0.73;0.10;;;;;;;32.90;35.15;98562.78;7400175;19;20043;-59
2023/12/21 04:16:33;;;;;;;0.38;0.38;;;;;;;26.19;48.14;98621.53;7401920;19;20010;-60
2023/12/21 04:19:01;;;;;;;0.47;0.30;;;;;;;24.45;61.25;98618.59;7402656;19;20011;-60
2023/12/21 04:21:27;;;;;;;0.00;0.00;;;;;;;25.13;64.08;98589.31;7404130;19;20015;-60
2023/12/21 04:23:54;;;;;;;0.32;0.28;;;;;;;24.34;69.04;98590.75;7400380;19;20014;-60
2023/12/21 04:26:21;;;;;;;11.40;1.08;;;;;;;24.02;72.72;98569.94;7398271;19;20081;-60
2023/12/21 04:28:49;;;;;;;0.57;0.57;;;;;;;23.53;77.83;98562.00;7401946;19;20015;-60
2023/12/21 04:31:24;;;;;;;0.20;0.00;;;;;;;23.42;81.82;98568.28;7399459;19;20224;-59
2023/12/21 04:33:51;;;;;;;0.10;0.10;;;;;;;23.65;80.03;98568.59;7398204;19;20014;-59
2023/12/21 04:36:18;;;;;;;2.13;0.22;;;;;;;23.81;80.05;98558.44;7398474;19;20003;-60
2023/12/21 04:38:44;;;;;;;0.38;0.20;;;;;;;23.63;81.74;98576.97;7400822;19;20043;-60
2023/12/21 04:41:10;;;;;;;0.00;0.00;;;;;;;25.32;71.00;98555.00;7398279;19;20070;-60
2023/12/21 04:43:37;;;;;;;0.10;0.00;;;;;;;23.51;81.06;98576.06;7396628;19;20018;-59
2023/12/21 04:46:06;;;;;;;0.00;0.00;;;;;;;22.77;84.83;98590.16;7397099;19;20014;-59
2023/12/21 04:48:32;;;;;;;0.40;0.10;;;;;;;22.54;87.02;98562.81;7400000;19;20125;-59
2023/12/21 04:50:59;;;;;;;4.03;0.25;;;;;;;21.74;94.40;98578.97;7398363;19;20002;-59
2023/12/21 04:53:25;;;;;;;3.70;0.40;;;;;;;23.17;88.93;98576.28;7399809;19;20010;-59
2023/12/21 04:55:51;;;;;;;0.10;0.10;;;;;;;23.52;87.23;98583.22;7398243;19;20434;-60
2023/12/21 04:58:18;;;;;;;0.00;0.00;;;;;;;24.42;81.50;98574.25;7400298;19;20055;-59
2023/12/21 05:00:50;;;;;;;0.10;0.00;;;;;;;24.01;81.97;98565.63;7397871;19;20409;-59
2023/12/21 05:03:19;;;;;;;0.03;0.00;;;;;;;23.64;83.84;98572.78;7397739;19;20010;-59
2023/12/21 05:05:46;;;;;;;1.20;0.52;;;;;;;24.88;78.38;98569.06;7397599;19;20018;-59
2023/12/21 05:08:13;;;;;;;0.00;0.00;;;;;;;25.79;73.50;98561.78;7399503;19;20011;-59
2023/12/21 05:10:40;;;;;;;0.00;0.00;;;;;;;25.53;73.75;98591.38;7396852;19;20075;-59
2023/12/21 05:13:07;;;;;;;0.00;0.00;;;;;;;24.64;75.84;98596.53;7396257;19;20018;-59
2023/12/21 05:15:33;;;;;;;0.38;0.20;;;;;;;25.28;75.14;98553.97;7397200;19;20014;-60
2023/12/21 05:17:59;;;;;;;0.10;0.10;;;;;;;25.51;73.02;98554.19;7398618;19;20010;-59
2023/12/21 05:20:25;;;;;;;0.00;0.00;;;;;;;25.03;73.41;98557.28;7398771;19;20419;-59
2023/12/21 05:22:51;;;;;;;0.00;0.00;;;;;;;25.42;73.50;98570.00;7397119;19;20015;-59
2023/12/21 05:25:17;;;;;;;0.10;0.00;;;;;;;24.98;74.61;98572.59;7393128;19;20344;-59
2023/12/21 05:27:44;;;;;;;0.10;0.10;;;;;;;25.36;72.41;98571.66;7396115;19;20017;-59
2023/12/21 05:30:10;;;;;;;0.00;0.00;;;;;;;25.20;75.84;98568.44;7396666;19;20032;-60
2023/12/21 05:32:37;;;;;;;2.22;0.30;;;;;;;25.70;73.34;98605.38;7398948;19;20369;-59
2023/12/21 05:35:04;;;;;;;0.00;0.00;;;;;;;26.05;67.10;98588.44;7396880;19;20017;-59
2023/12/21 05:37:30;;;;;;;1.48;0.52;;;;;;;25.46;70.66;98575.22;7396292;19;20010;-59
2023/12/21 05:39:56;;;;;;;0.00;0.00;;;;;;;26.09;68.09;98580.16;7395510;19;20365;-60
2023/12/21 05:42:22;;;;;;;0.03;0.00;;;;;;;26.42;66.59;98617.28;7397773;19;20491;-60
2023/12/21 05:44:48;;;;;;;0.00;0.00;;;;;;;26.74;65.03;98591.56;7394259;19;20021;-59
2023/12/21 05:47:14;;;;;;;0.10;0.10;;;;;;;26.59;64.99;98554.88;7396829;19;20039;-59
2023/12/21 05:49:41;;;;;;;0.00;0.00;;;;;;;26.88;64.05;98583.84;7395007;19;20460;-59
2023/12/21 05:52:07;;;;;;;0.00;0.00;;;;;;;26.83;63.61;98573.53;7397112;19;20344;-59
2023/12/21 05:54:33;;;;;;;0.00;0.00;;;;;;;26.74;63.03;98582.97;7399974;19;20023;-59
2023/12/21 05:56:59;;;;;;;0.93;0.17;;;;;;;26.82;63.04;98582.72;7396836;19;20018;-59
2023/12/21 05:59:26;;;;;;;1.95;0.30;;;;;;;26.60;63.27;98602.03;7398225;19;20007;-58
2023/12/21 06:01:52;;;;;;;0.00;0.00;;;;;;;26.75;62.44;98607.31;7399388;19;20010;-59
2023/12/21 06:04:18;;;;;;;0.68;0.38;;;;;;;26.68;62.52;98598.97;7397639;19;20006;-59
2023/12/21 06:06:46;;;;;;;0.10;0.10;;;;;;;26.74;62.43;98588.69;7398779;19;20656;-59
2023/12/21 06:09:12;;;;;;;0.03;0.03;;;;;;;26.61;62.35;98606.41;7398720;19;20497;-59
2023/12/21 06:11:38;;;;;;;0.90;0.20;;;;;;;26.08;63.25;98593.69;7398477;19;20026;-59
2023/12/21 06:14:04;;;;;;;0.00;0.00;;;;;;;28.19;60.00;98583.19;7398437;19;20006;-60
2023/12/21 06:16:30;;;;;;;0.30;0.30;;;;;;;29.57;54.34;98589.34;7399179;19;20007;-58
2023/12/21 06:18:56;;;;;;;0.88;0.30;;;;;;;29.60;52.80;98588.06;7398329;19;20070;-59
2023/12/21 06:21:24;;;;;;;0.00;0.00;;;;;;;27.30;56.50;98564.97;7395444;19;20017;-58
2023/12/21 06:23:50;;;;;;;0.00;0.00;;;;;;;27.87;56.44;98592.00;7394216;19;20016;-59
2023/12/21 06:26:16;;;;;;;0.00;0.00;;;;;;;28.27;55.23;98562.84;7394972;19;20376;-59
2023/12/21 06:28:42;;;;;;;0.00;0.00;;;;;;;28.41;54.15;98590.16;7395027;19;20508;-59
2023/12/21 06:31:13;;;;;;;0.00;0.00;;;;;;;29.10;52.78;98593.97;7393064;19;20011;-59
2023/12/21 06:33:40;;;;;;;0.65;0.10;;;;;;;29.10;51.83;98568.19;7396007;19;20014;-59
2023/12/21 06:36:06;;;;;;;0.50;0.13;;;;;;;29.22;51.45;98549.50;7399003;19;20070;-59
2023/12/21 06:38:32;;;;;;;0.10;0.10;;;;;;;29.20;50.86;98574.47;7398808;19;20018;-59
2023/12/21 06:40:58;;;;;;;0.03;0.00;;;;;;;29.01;50.76;98549.06;7398311;19;20010;-59
2023/12/21 06:43:24;;;;;;;0.10;0.10;;;;;;;29.23;50.69;98544.53;7396388;19;20466;-59
2023/12/21 06:45:51;;;;;;;1.98;0.28;;;;;;;29.39;49.51;98573.31;7398486;19;20019;-59
2023/12/21 06:48:17;;;;;;;3.72;0.20;;;;;;;29.03;50.35;98531.94;7399671;19;20015;-59
2023/12/21 06:50:44;;;;;;;5.53;0.77;;;;;;;28.80;50.41;98509.22;7394419;19;20010;-59
2023/12/21 06:53:15;;;;;;;0.00;0.00;;;;;;;28.97;50.05;98560.31;7394536;19;20017;-59
2023/12/21 06:55:42;;;;;;;0.47;0.30;;;;;;;28.65;50.29;98544.22;7393753;19;20015;-57
2023/12/21 06:58:08;;;;;;;0.57;0.30;;;;;;;28.75;50.55;98536.16;7393781;19;20011;-57
2023/12/21 07:00:35;;;;;;;0.32;0.10;;;;;;;28.56;50.07;98545.88;7393720;19;20354;-58
2023/12/21 07:03:01;;;;;;;0.38;0.30;;;;;;;28.47;50.31;98538.97;7393779;19;20014;-59
2023/12/21 07:05:27;;;;;;;0.00;0.00;;;;;;;26.94;52.97;98567.09;7396389;19;20022;-59
2023/12/21 07:07:57;;;;;;;0.10;0.10;;;;;;;27.40;52.71;98594.94;7393790;19;20024;-59
2023/12/21 07:10:23;;;;;;;0.95;0.45;;;;;;;28.04;51.78;98580.91;7394301;19;20070;-59
2023/12/21 07:12:49;;;;;;;0.03;0.03;;;;;;;28.33;51.20;98561.06;7393823;19;20062;-58
2023/12/21 07:19:16;;;;;;;0.10;0.00;;;;;;;26.33;76.14;98567.47;7421990;19;20707;-84
2023/12/21 07:21:42;;;;;;;0.20;0.20;;;;;;;27.66;64.90;98565.03;7426321;19;20010;-84
2023/12/21 07:24:08;;;;;;;0.10;0.10;;;;;;;29.18;56.83;98577.22;7424655;19;20010;-84
2023/12/21 07:26:34;;;;;;;0.05;0.00;;;;;;;28.82;55.58;98553.06;7425015;19;20058;-84
2023/12/21 07:29:00;;;;;;;0.10;0.10;;;;;;;28.74;53.03;98528.97;7427568;19;20015;-85
2023/12/21 07:31:27;;;;;;;0.55;0.22;;;;;;;29.47;51.63;98574.47;7422731;19;20010;-85
2023/12/21 07:33:53;;;;;;;0.10;0.10;;;;;;;29.49;50.20;98565.97;7423921;19;20014;-84
2023/12/21 07:36:19;;;;;;;0.20;0.20;;;;;;;30.29;48.69;98559.94;7424586;19;20002;-85
2023/12/21 07:38:45;;;;;;;0.00;0.00;;;;;;;29.69;48.58;98572.72;7424306;19;20033;-82
2023/12/21 07:41:12;;;;;;;0.10;0.00;;;;;;;29.56;48.48;98559.16;7424908;19;20010;-82
2023/12/21 07:43:39;;;;;;;0.08;0.08;;;;;;;30.01;47.65;98561.44;7423776;19;20010;-84
2023/12/21 07:46:05;;;;;;;0.20;0.10;;;;;;;30.18;46.36;98557.97;7424117;19;20018;-81
2023/12/21 07:48:32;;;;;;;0.17;0.10;;;;;;;30.10;46.44;98574.81;7423337;19;20014;-81
2023/12/21 07:50:58;;;;;;;0.00;0.00;;;;;;;29.74;47.26;98545.00;7423589;19;20087;-82
2023/12/21 07:53:24;;;;;;;0.10;0.10;;;;;;;29.26;46.92;98545.38;7423923;19;20007;-81
2023/12/21 07:55:50;;;;;;;0.52;0.50;;;;;;;29.36;47.31;98555.25;7423147;19;20018;-85
2023/12/21 07:58:16;;;;;;;0.00;0.00;;;;;;;29.94;45.48;98566.88;7422131;19;20014;-83
2023/12/21 08:00:43;;;;;;;0.15;0.15;;;;;;;29.86;45.83;98575.09;7423265;19;20010;-83
2023/12/21 08:03:09;;;;;;;0.10;0.10;;;;;;;29.90;45.84;98565.94;7425310;19;20014;-82
2023/12/21 08:05:36;;;;;;;0.10;0.10;;;;;;;30.13;45.52;98573.50;7421899;19;20015;-83
2023/12/21 08:08:04;;;;;;;0.00;0.00;;;;;;;30.58;44.56;98582.94;7421396;19;20541;-83
2023/12/21 08:10:31;;;;;;;0.20;0.10;;;;;;;30.30;44.60;98559.28;7424250;19;20687;-83
2023/12/21 08:12:58;;;;;;;0.13;0.13;;;;;;;30.94;43.32;98578.91;7426375;19;20018;-82
2023/12/21 08:15:26;;;;;;;0.00;0.00;;;;;;;31.06;43.29;98596.72;7427774;19;20038;-83
2023/12/21 08:17:55;;;;;;;0.20;0.20;;;;;;;30.98;43.12;98579.09;7427696;19;20018;-83
2023/12/21 08:20:23;;;;;;;0.00;0.00;;;;;;;30.77;42.96;98575.91;7423634;19;20074;-83
2023/12/21 08:22:49;;;;;;;1.30;0.28;;;;;;;30.50;43.47;98591.16;7423026;19;20006;-83
2023/12/21 08:25:15;;;;;;;0.00;0.00;;;;;;;30.39;44.05;98580.56;7421279;19;20014;-83
2023/12/21 08:27:42;;;;;;;0.10;0.10;;;;;;;30.53;43.91;98604.25;7421530;19;20326;-84
2023/12/21 08:30:09;;;;;;;2.17;0.45;;;;;;;31.08;43.12;98605.44;7398336;19;20079;-83
2023/12/21 08:32:36;;;;;;;0.10;0.00;;;;;;;30.89;43.23;98594.50;7392865;19;20018;-84
2023/12/21 08:35:02;;;;;;;0.00;0.00;;;;;;;31.15;42.81;98575.56;7394014;19;20494;-84
2023/12/21 08:37:28;;;;;;;0.10;0.10;;;;;;;31.10;43.22;98602.66;7392620;19;20007;-85
2023/12/21 08:39:54;;;;;;;0.00;0.00;;;;;;;30.96;43.38;98584.75;7393062;19;20472;-84
2023/12/21 08:42:20;;;;;;;0.52;0.08;;;;;;;30.71;43.70;98630.97;7394384;19;20021;-82
2023/12/21 08:44:48;;;;;;;2.33;0.00;;;;;;;30.43;43.98;98612.38;7394916;19;20424;-83
2023/12/21 08:47:14;;;;;;;1.58;0.20;;;;;;;30.56;43.31;98579.94;7391880;19;20002;-83
2023/12/21 08:49:41;;;;;;;0.43;0.32;;;;;;;30.96;43.03;98604.88;7392434;19;20461;-82
2023/12/21 08:52:07;;;;;;;0.10;0.00;;;;;;;31.12;42.94;98611.38;7395434;19;20085;-85
2023/12/21 08:54:33;;;;;;;1.38;0.32;;;;;;;30.98;42.96;98607.84;7395061;19;20018;-84
2023/12/21 08:56:59;;;;;;;2.72;0.57;;;;;;;30.77;42.79;98596.78;7394521;19;20449;-84
2023/12/21 08:59:26;;;;;;;1.00;0.10;;;;;;;30.13;43.69;98619.47;7394298;19;20018;-85
2023/12/21 09:01:54;;;;;;;0.03;0.00;;;;;;;30.47;43.19;98613.31;7393569;19;20018;-85
2023/12/21 09:04:20;;;;;;;0.10;0.00;;;;;;;30.65;42.77;98601.94;7391681;19;20021;-84
2023/12/21 09:06:46;;;;;;;0.80;0.10;;;;;;;29.46;44.40;98598.81;7393286;19;20010;-84
2023/12/21 09:09:13;;;;;;;0.10;0.00;;;;;;;29.45;44.44;98600.19;7393920;19;20030;-85
2023/12/21 09:11:40;;;;;;;0.73;0.10;;;;;;;29.62;44.10;98596.03;7392103;19;20729;-85
2023/12/21 09:14:07;;;;;;;0.77;0.20;;;;;;;28.91;45.58;98583.63;7392569;19;20014;-83
2023/12/21 09:16:34;;;;;;;7.03;0.55;;;;;;;28.65;46.24;98573.63;7391544;19;20011;-85
2023/12/21 09:19:00;;;;;;;0.10;0.00;;;;;;;29.19;45.51;98579.44;7393821;19;20472;-85
2023/12/21 09:21:29;;;;;;;1.00;0.20;;;;;;;28.72;46.22;98580.44;7391763;19;20014;-85
2023/12/21 09:23:57;;;;;;;0.00;0.00;;;;;;;28.63;46.97;98598.56;7392565;19;20011;-85
2023/12/21 09:26:23;;;;;;;0.10;0.10;;;;;;;27.34;49.42;98560.25;7392527;19;20624;-84
2023/12/21 09:28:49;;;;;;;0.00;0.00;;;;;;;26.66;50.77;98605.28;7391926;19;20018;-84
2023/12/21 09:31:15;;;;;;;0.40;0.17;;;;;;;28.88;48.53;98613.59;7391750;19;20018;-84
2023/12/21 09:33:41;;;;;;;0.43;0.10;;;;;;;27.32;50.25;98616.56;7392929;19;20002;-84
2023/12/21 09:36:09;;;;;;;0.63;0.55;;;;;;;25.78;56.94;98611.63;7394371;19;20025;-85
2023/12/21 09:38:35;;;;;;;0.10;0.00;;;;;;;26.61;54.96;98614.97;7392746;19;20036;-89
2023/12/21 09:41:01;;;;;;;0.25;0.25;;;;;;;26.79;54.52;98624.00;7388395;19;19998;-83
2023/12/21 09:43:29;;;;;;;0.38;0.10;;;;;;;24.68;63.67;98650.16;7391880;19;20461;-85
2023/12/21 09:45:59;;;;;;;0.45;0.10;;;;;;;23.48;75.06;98602.06;7392507;19;20018;-85
2023/12/21 09:48:26;;;;;;;0.15;0.15;;;;;;;25.38;67.39;98623.84;7390340;19;20074;-85
2023/12/21 09:50:52;;;;;;;0.20;0.20;;;;;;;25.76;64.84;98614.34;7392465;19;20495;-85
2023/12/21 09:53:22;;;;;;;0.10;0.00;;;;;;;24.70;71.70;98633.22;7390725;19;20006;-85
2023/12/21 09:55:49;;;;;;;0.10;0.10;;;;;;;24.34;72.31;98636.28;7392448;19;20070;-85
2023/12/21 09:58:15;;;;;;;0.88;0.20;;;;;;;25.38;70.70;98606.72;7390496;19;20021;-83
2023/12/21 10:00:42;;;;;;;5.72;0.52;;;;;;;25.78;67.14;98639.38;7391776;19;20031;-83
2023/12/21 10:03:08;;;;;;;0.10;0.00;;;;;;;25.86;65.78;98606.44;7392416;19;20469;-84
2023/12/21 10:05:34;;;;;;;0.00;0.00;;;;;;;25.91;65.09;98636.00;7391289;19;20015;-84
2023/12/21 10:08:01;;;;;;;0.10;0.00;;;;;;;27.18;61.79;98681.44;7390716;19;20003;-85
2023/12/21 10:10:28;;;;;;;0.30;0.30;;;;;;;26.66;61.86;98638.84;7391673;19;20010;-86
2023/12/21 10:12:54;;;;;;;0.20;0.10;;;;;;;26.69;61.16;98635.47;7392802;19;20050;-87
2023/12/21 10:15:20;;;;;;;0.10;0.10;;;;;;;26.76;61.10;98653.78;7392101;19;20015;-87
2023/12/21 10:17:47;;;;;;;0.00;0.00;;;;;;;27.11;60.18;98659.56;7391413;19;20357;-84
2023/12/21 10:20:13;;;;;;;0.00;0.00;;;;;;;27.26;60.06;98665.53;7392005;19;20015;-84
2023/12/21 10:22:40;;;;;;;0.00;0.00;;;;;;;27.03;60.03;98663.41;7393588;19;20014;-86
2023/12/21 10:25:07;;;;;;;0.50;0.10;;;;;;;25.78;62.39;98670.75;7392193;19;20010;-85
2023/12/21 10:27:34;;;;;;;0.40;0.30;;;;;;;25.78;63.05;98682.94;7391607;19;20006;-88
2023/12/21 10:30:02;;;;;;;1.20;0.10;;;;;;;25.05;66.94;98687.72;7391068;19;20015;-89
2023/12/21 10:32:28;;;;;;;1.02;0.38;;;;;;;25.52;67.37;98693.28;7390807;19;20019;-89
2023/12/21 10:34:58;;;;;;;0.20;0.20;;;;;;;24.72;70.20;98685.38;7394583;19;20486;-86
2023/12/21 10:37:25;;;;;;;0.15;0.10;;;;;;;26.62;65.80;98685.00;7389703;19;20024;-88
2023/12/21 10:39:56;;;;;;;3.42;0.20;;;;;;;26.03;64.04;98688.19;7392411;19;20018;-89
2023/12/21 10:42:23;;;;;;;0.25;0.10;;;;;;;26.28;64.28;98699.88;7391996;19;20013;-86
2023/12/21 10:44:49;;;;;;;0.15;0.15;;;;;;;27.31;63.11;98689.41;7392634;19;20074;-88
2023/12/21 10:47:16;;;;;;;0.10;0.10;;;;;;;29.70;55.21;98683.31;7391003;19;20022;-83
2023/12/21 10:49:43;;;;;;;1.10;0.75;;;;;;;27.16;58.09;98698.47;7393311;19;20023;-85
2023/12/21 10:52:11;;;;;;;0.10;0.10;;;;;;;26.72;59.34;98682.06;7392875;19;20002;-85
2023/12/21 10:54:38;;;;;;;0.45;0.40;;;;;;;28.42;56.73;98689.03;7392794;19;20031;-84
2023/12/21 10:57:05;;;;;;;2.30;0.70;;;;;;;28.62;54.41;98706.69;7391680;19;20007;-83
2023/12/21 10:59:32;;;;;;;0.10;0.00;;;;;;;28.68;54.76;98709.91;7389504;19;20017;-83
2023/12/21 11:01:59;;;;;;;1.75;0.47;;;;;;;27.42;55.77;98688.69;7391113;19;20014;-86
2023/12/21 11:04:27;;;;;;;1.27;0.35;;;;;;;27.00;57.42;98704.66;7389553;19;20010;-83
2023/12/21 11:06:54;;;;;;;2.47;1.50;;;;;;;27.75;55.39;98695.03;7387869;19;20029;-84
2023/12/21 11:09:25;;;;;;;0.20;0.20;;;;;;;26.37;58.24;98710.47;7388994;19;20003;-83
2023/12/21 11:11:57;;;;;;;3.83;0.68;;;;;;;25.58;61.05;98724.31;7388441;19;20020;-83
2023/12/21 11:14:24;;;;;;;1.08;0.32;;;;;;;26.70;58.39;98702.69;7389663;19;20034;-81
2023/12/21 11:16:57;;;;;;;2.10;0.55;;;;;;;28.47;52.15;98705.09;7390397;19;20010;-83
2023/12/21 11:19:34;;;;;;;0.50;0.20;;;;;;;34.40;40.73;98696.06;7390290;19;20410;-84
2023/12/21 11:22:01;;;;;;;7.43;0.75;;;;;;;35.01;37.99;98698.84;7389612;19;20010;-84
2023/12/21 11:24:27;;;;;;;0.32;0.20;;;;;;;33.89;38.09;98702.22;7391148;19;20018;-83
2023/12/21 11:26:55;;;;;;;3.38;1.10;;;;;;;33.75;37.74;98698.78;7387849;19;20095;-84
2023/12/21 11:29:24;;;;;;;1.42;0.30;;;;;;;33.48;36.78;98699.22;7387282;19;20030;-84
2023/12/21 11:31:50;;;;;;;3.20;0.85;;;;;;;32.97;36.95;98690.69;7389494;19;20015;-84